MEO weather

Dare County Regional Airport
Manteo, North Carolina, United States

Public forecast

Using degrees Fahrenheit for public forecast. Weather courtesy of forecast.io.

METAR (pilot weather report)

Retrieved 2019/02/23 05:00 UTC (8 minutes ago):

KMQI 230500Z AUTO 04013G17KT 10SM -DZ SCT047 OVC060 07/05 A3039 RMK AO2 T00700047

TAF (pilot weather forecast)

Forecast is more than 12 hours old.

Closest forecast is Elizabeth City Regional Airport & Coast Guard Air Station, 31.0 nm (57.4 km) NW. Retrieved 2019/02/22 00:42 UTC (1 day ago):

TAF KECG 222339Z 2300/2324 03009KT 6SM -RA OVC050 FM231600 05010KT 4SM RA OVC015 FM232100 07008KT 3SM RA OVC007